createdAt,value
2019-02-14T00:00:45.321Z,99.90
2019-02-14T00:03:15.208Z,99.90
2019-02-14T00:05:44.798Z,99.90
2019-02-14T00:08:14.403Z,99.90
2019-02-14T00:10:44.004Z,99.90
2019-02-14T00:13:13.585Z,99.90
2019-02-14T00:15:43.174Z,99.90
2019-02-14T00:18:12.762Z,99.90
2019-02-14T00:20:42.359Z,99.90
2019-02-14T00:23:11.939Z,99.90
2019-02-14T00:25:41.538Z,99.90
2019-02-14T00:28:11.111Z,99.90
2019-02-14T00:30:41.685Z,99.90
2019-02-14T00:33:11.261Z,99.90
2019-02-14T00:35:41.207Z,99.90
2019-02-14T00:38:10.793Z,99.90
2019-02-14T00:40:40.403Z,99.90
2019-02-14T00:43:10.010Z,99.90
2019-02-14T00:45:39.610Z,99.90
2019-02-14T00:48:09.191Z,99.90
2019-02-14T00:50:38.795Z,99.90
2019-02-14T00:53:08.380Z,99.90
2019-02-14T00:55:37.987Z,99.90
2019-02-14T00:58:07.583Z,99.90
2019-02-14T01:00:37.187Z,99.90
2019-02-14T01:03:06.779Z,99.90
2019-02-14T01:05:36.641Z,99.90
2019-02-14T01:08:06.269Z,99.90
2019-02-14T01:10:35.863Z,99.90
2019-02-14T01:13:05.748Z,99.90
2019-02-14T01:15:36.351Z,99.90
2019-02-14T01:18:05.915Z,99.90
2019-02-14T01:20:35.604Z,99.90
2019-02-14T01:23:05.184Z,99.90
2019-02-14T01:25:34.863Z,99.90
2019-02-14T01:28:04.812Z,99.90
2019-02-14T01:30:34.482Z,99.90
2019-02-14T01:33:04.075Z,99.90
2019-02-14T01:35:41.656Z,99.90
2019-02-14T01:38:04.948Z,99.90
2019-02-14T01:40:34.643Z,99.90
2019-02-14T01:43:04.591Z,99.90
2019-02-14T01:45:34.180Z,99.90
2019-02-14T01:48:03.795Z,99.90
2019-02-14T01:50:33.370Z,99.90
2019-02-14T01:53:02.959Z,99.90
2019-02-14T01:55:32.856Z,99.90
2019-02-14T01:58:03.046Z,99.90
2019-02-14T02:00:32.799Z,99.90
2019-02-14T02:03:02.425Z,99.90
2019-02-14T02:05:32.164Z,99.90
2019-02-14T02:08:01.772Z,99.90
2019-02-14T02:10:31.355Z,99.90
2019-02-14T02:13:01.437Z,99.90
2019-02-14T02:15:31.067Z,99.90
2019-02-14T02:18:00.767Z,99.90
2019-02-14T02:20:33.323Z,99.90
2019-02-14T02:23:01.684Z,99.90
2019-02-14T02:25:31.284Z,99.90
2019-02-14T02:28:01.964Z,99.90
2019-02-14T02:30:31.907Z,99.90
2019-02-14T02:33:01.603Z,99.90
2019-02-14T02:35:31.208Z,99.90
2019-02-14T02:38:00.827Z,99.90
2019-02-14T02:40:31.379Z,99.90
2019-02-14T02:43:01.009Z,99.90
2019-02-14T02:45:30.588Z,99.90
2019-02-14T02:48:00.187Z,99.90
2019-02-14T02:50:29.783Z,99.90
2019-02-14T02:52:59.469Z,99.90
2019-02-14T02:55:29.073Z,99.90
2019-02-14T02:57:58.674Z,99.90
2019-02-14T03:00:28.278Z,99.90
2019-02-14T03:02:57.894Z,99.90
2019-02-14T03:05:27.480Z,99.90
2019-02-14T03:07:57.092Z,99.90
2019-02-14T03:10:26.703Z,99.90
2019-02-14T03:12:56.655Z,99.90
2019-02-14T03:15:26.327Z,99.90
2019-02-14T03:17:56.017Z,99.90
2019-02-14T03:20:25.607Z,99.90
2019-02-14T03:22:55.222Z,99.90
2019-02-14T03:25:27.583Z,99.90
2019-02-14T03:27:57.192Z,99.90
2019-02-14T03:30:26.786Z,99.90
2019-02-14T03:32:56.476Z,99.90
2019-02-14T03:35:27.055Z,99.90
2019-02-14T03:37:56.683Z,99.90
2019-02-14T03:40:26.302Z,99.90
2019-02-14T03:42:55.926Z,99.90
2019-02-14T03:45:25.579Z,99.90
2019-02-14T03:47:55.178Z,99.90
2019-02-14T03:50:24.768Z,99.90
2019-02-14T03:52:54.360Z,99.90
2019-02-14T03:55:24.022Z,99.90
2019-02-14T03:57:53.622Z,99.90
2019-02-14T04:00:23.221Z,99.90
2019-02-14T04:02:52.823Z,99.90
2019-02-14T04:05:22.411Z,99.90
2019-02-14T04:07:52.018Z,99.90
2019-02-14T04:10:21.606Z,99.90
2019-02-14T04:12:51.204Z,99.90
2019-02-14T04:15:20.818Z,99.90
2019-02-14T04:17:50.399Z,99.90
2019-02-14T04:20:19.999Z,99.90
2019-02-14T04:22:49.603Z,99.90
2019-02-14T04:25:19.191Z,99.90
2019-02-14T04:27:49.108Z,99.90
2019-02-14T04:30:19.118Z,99.90
2019-02-14T04:32:48.722Z,99.90
2019-02-14T04:35:18.290Z,99.90
2019-02-14T04:37:47.899Z,99.90
2019-02-14T04:40:17.800Z,99.90
2019-02-14T04:42:47.488Z,99.90
2019-02-14T04:45:17.150Z,99.90
2019-02-14T04:47:46.770Z,99.90
2019-02-14T04:50:16.363Z,99.90
2019-02-14T04:52:46.047Z,99.90
2019-02-14T04:55:15.954Z,99.90
2019-02-14T04:57:45.579Z,99.90
2019-02-14T05:00:15.251Z,99.90
2019-02-14T05:02:45.182Z,99.90
2019-02-14T05:05:14.999Z,99.90
2019-02-14T05:07:44.611Z,99.90
2019-02-14T05:10:14.511Z,99.90
2019-02-14T05:12:44.121Z,99.90
2019-02-14T05:15:13.772Z,99.90
2019-02-14T05:17:43.364Z,99.90
2019-02-14T05:20:12.960Z,99.90
2019-02-14T05:22:42.555Z,99.90
2019-02-14T05:25:12.156Z,99.90
2019-02-14T05:27:41.773Z,99.90
2019-02-14T05:30:12.180Z,99.90
2019-02-14T05:32:42.133Z,99.90
2019-02-14T05:35:12.080Z,99.90
2019-02-14T05:37:41.683Z,99.90
2019-02-14T05:40:11.438Z,99.90
2019-02-14T05:42:41.055Z,99.90
2019-02-14T05:45:11.121Z,99.90
2019-02-14T05:47:40.748Z,99.90
2019-02-14T05:50:10.448Z,99.90
2019-02-14T05:52:40.043Z,99.90
2019-02-14T05:55:10.408Z,99.90
2019-02-14T05:57:40.004Z,99.90
2019-02-14T06:00:11.579Z,99.90
2019-02-14T06:02:41.252Z,99.90
2019-02-14T06:05:11.822Z,99.90
2019-02-14T06:07:42.772Z,99.90
2019-02-14T06:10:12.624Z,99.90
2019-02-14T06:12:42.306Z,99.90
2019-02-14T06:15:12.283Z,99.90
2019-02-14T06:17:43.011Z,99.90
2019-02-14T06:20:13.261Z,99.90
2019-02-14T06:22:42.876Z,99.90
2019-02-14T06:25:12.533Z,99.90
2019-02-14T06:27:43.225Z,99.90
2019-02-14T06:30:13.714Z,99.90
2019-02-14T06:32:43.304Z,99.90
2019-02-14T06:35:13.518Z,99.90
2019-02-14T06:37:43.171Z,99.90
2019-02-14T06:40:12.926Z,99.90
2019-02-14T06:42:42.661Z,99.90
2019-02-14T06:45:13.674Z,99.90
2019-02-14T06:47:43.604Z,99.90
2019-02-14T06:50:13.250Z,99.90
2019-02-14T06:52:43.960Z,99.90
2019-02-14T06:55:13.804Z,99.90
2019-02-14T06:57:43.623Z,99.90
2019-02-14T07:00:14.765Z,99.90
2019-02-14T07:02:44.402Z,99.90
2019-02-14T07:05:14.103Z,99.90
2019-02-14T07:07:43.747Z,99.90
2019-02-14T07:10:14.395Z,99.90
2019-02-14T07:12:43.999Z,99.90
2019-02-14T07:15:13.654Z,99.90
2019-02-14T07:17:43.250Z,99.90
2019-02-14T07:20:13.985Z,99.90
2019-02-14T07:22:43.583Z,99.90
2019-02-14T07:25:13.690Z,99.90
2019-02-14T07:27:43.352Z,99.90
2019-02-14T07:30:15.401Z,99.90
2019-02-14T07:32:45.004Z,99.90
2019-02-14T07:35:14.586Z,99.90
2019-02-14T07:37:44.263Z,99.90
2019-02-14T07:40:14.215Z,99.90
2019-02-14T07:42:43.834Z,99.90
2019-02-14T07:45:14.146Z,99.90
2019-02-14T07:47:43.773Z,99.90
2019-02-14T07:50:13.359Z,99.90
2019-02-14T07:52:42.992Z,99.90
2019-02-14T07:55:12.734Z,99.90
2019-02-14T07:57:42.774Z,99.90
2019-02-14T08:00:13.299Z,99.90
2019-02-14T08:02:42.929Z,99.90
2019-02-14T08:05:12.810Z,99.90
2019-02-14T08:07:42.458Z,99.90
2019-02-14T08:10:13.357Z,99.90
2019-02-14T08:12:43.040Z,99.90
2019-02-14T08:15:13.617Z,99.90
2019-02-14T08:17:43.291Z,99.90
2019-02-14T08:20:13.165Z,99.90
2019-02-14T08:22:42.754Z,99.90
2019-02-14T08:25:12.753Z,99.90
2019-02-14T08:27:42.438Z,99.90
2019-02-14T08:30:13.636Z,99.90
2019-02-14T08:32:43.235Z,99.90
2019-02-14T08:35:12.916Z,99.90
2019-02-14T08:37:45.402Z,99.90
2019-02-14T08:40:16.780Z,99.90
2019-02-14T08:42:46.400Z,99.90
2019-02-14T08:45:15.975Z,99.90
2019-02-14T08:47:46.663Z,99.90
2019-02-14T08:50:19.394Z,99.90
2019-02-14T08:52:49.935Z,99.90
2019-02-14T08:55:19.547Z,99.90
2019-02-14T08:57:49.132Z,99.90
2019-02-14T09:00:18.797Z,99.90
2019-02-14T09:02:48.383Z,99.90
2019-02-14T09:05:17.963Z,99.90
2019-02-14T09:07:54.175Z,99.90
2019-02-14T09:10:18.923Z,99.90
2019-02-14T09:12:48.825Z,99.90
2019-02-14T09:15:18.480Z,99.90
2019-02-14T09:17:48.087Z,99.90
2019-02-14T09:20:17.730Z,99.90
2019-02-14T09:22:47.350Z,99.90
2019-02-14T09:25:17.009Z,99.90
2019-02-14T09:27:46.805Z,99.90
2019-02-14T09:30:16.463Z,99.90
2019-02-14T09:32:46.095Z,99.90
2019-02-14T09:35:15.736Z,99.90
2019-02-14T09:37:45.348Z,99.90
2019-02-14T09:40:15.036Z,99.90
2019-02-14T09:42:44.928Z,99.90
2019-02-14T09:45:15.004Z,99.90
2019-02-14T09:47:44.569Z,99.90
2019-02-14T09:50:14.415Z,99.90
2019-02-14T09:52:44.120Z,99.90
2019-02-14T09:55:13.978Z,99.90
2019-02-14T09:57:43.596Z,99.90
2019-02-14T10:00:14.991Z,99.90
2019-02-14T10:02:44.690Z,99.90
2019-02-14T10:05:14.519Z,99.90
2019-02-14T10:07:44.182Z,99.90
2019-02-14T10:10:15.732Z,99.90
2019-02-14T10:12:46.351Z,99.90
2019-02-14T10:15:16.907Z,99.90
2019-02-14T10:17:46.500Z,99.90
2019-02-14T10:20:16.471Z,99.90
2019-02-14T10:22:47.095Z,99.90
2019-02-14T10:25:16.704Z,99.90
2019-02-14T10:27:46.272Z,99.90
2019-02-14T10:30:17.437Z,99.90
2019-02-14T10:32:47.106Z,99.90
2019-02-14T10:35:16.765Z,99.90
2019-02-14T10:37:46.343Z,99.90
2019-02-14T10:40:16.985Z,99.90
2019-02-14T10:42:46.918Z,99.90
2019-02-14T10:45:16.950Z,99.90
2019-02-14T10:47:46.520Z,99.90
2019-02-14T10:50:16.526Z,99.90
2019-02-14T10:52:46.103Z,99.90
2019-02-14T10:55:16.111Z,99.90
2019-02-14T10:57:46.049Z,99.90
2019-02-14T11:00:19.326Z,99.90
2019-02-14T11:02:50.058Z,99.90
2019-02-14T11:05:20.307Z,99.90
2019-02-14T11:07:49.892Z,99.90
2019-02-14T11:10:19.567Z,99.90
2019-02-14T11:12:49.136Z,99.90
2019-02-14T11:15:19.580Z,99.90
2019-02-14T11:17:49.468Z,99.90
2019-02-14T11:20:19.266Z,99.90
2019-02-14T11:22:50.111Z,99.90
2019-02-14T11:25:28.344Z,99.90
2019-02-14T11:27:58.882Z,99.90
2019-02-14T11:30:28.558Z,99.90
2019-02-14T11:32:58.133Z,99.90
2019-02-14T11:35:27.738Z,99.90
2019-02-14T11:37:57.493Z,99.90
2019-02-14T11:40:27.177Z,99.90
2019-02-14T11:42:56.785Z,99.90
2019-02-14T11:45:26.768Z,99.90
2019-02-14T12:25:17.191Z,99.90
2019-02-14T12:27:47.224Z,99.90
2019-02-14T12:30:17.261Z,99.90
2019-02-14T12:32:46.856Z,99.90
2019-02-14T12:35:16.450Z,99.90
2019-02-14T12:37:46.034Z,99.90
2019-02-14T12:40:15.715Z,99.90
2019-02-14T12:42:45.359Z,99.90
2019-02-14T12:45:21.522Z,99.90
2019-02-14T12:47:48.023Z,99.90
2019-02-14T12:50:17.695Z,99.90
2019-02-14T12:52:47.286Z,99.90
2019-02-14T12:55:16.880Z,99.90
2019-02-14T12:57:46.492Z,99.90
2019-02-14T13:00:18.110Z,99.90
2019-02-14T13:02:47.708Z,99.90
2019-02-14T13:05:17.317Z,99.90
2019-02-14T13:07:47.085Z,99.90
2019-02-14T13:10:16.746Z,99.90
2019-02-14T13:12:46.479Z,99.90
2019-02-14T13:15:18.328Z,99.90
2019-02-14T13:17:48.025Z,99.90
2019-02-14T13:20:17.630Z,99.80
2019-02-14T13:22:47.211Z,99.70
2019-02-14T13:25:16.895Z,99.70
2019-02-14T13:27:47.369Z,99.80
2019-02-14T13:30:19.272Z,99.70
2019-02-14T13:32:50.171Z,99.60
2019-02-14T13:35:19.839Z,99.10
2019-02-14T13:37:49.422Z,99.00
2019-02-14T13:40:20.003Z,99.00
2019-02-14T13:42:49.571Z,98.90
2019-02-14T13:45:21.310Z,99.20
2019-02-14T13:47:50.895Z,99.00
2019-02-14T13:50:20.499Z,99.00
2019-02-14T13:52:50.084Z,98.90
2019-02-14T13:55:19.709Z,98.90
2019-02-14T13:57:49.305Z,99.10
2019-02-14T14:00:22.446Z,99.00
2019-02-14T14:02:52.029Z,98.80
2019-02-14T14:05:21.858Z,98.80
2019-02-14T14:07:51.536Z,98.90
2019-02-14T14:10:21.457Z,98.90
2019-02-14T14:12:51.116Z,99.00
2019-02-14T14:15:20.986Z,98.90
2019-02-14T14:17:50.564Z,99.00
2019-02-14T14:20:20.202Z,98.90
2019-02-14T14:22:49.804Z,98.90
2019-02-14T14:25:19.397Z,98.90
2019-02-14T14:27:48.995Z,98.80
2019-02-14T14:30:18.931Z,98.90
2019-02-14T14:32:48.897Z,98.90
2019-02-14T14:35:19.481Z,98.40
2019-02-14T14:37:49.386Z,98.30
2019-02-14T14:40:20.417Z,98.10
2019-02-14T14:43:09.443Z,98.00
2019-02-14T14:46:01.162Z,98.10
2019-02-14T14:48:39.455Z,98.50
2019-02-14T14:51:09.156Z,98.10
2019-02-14T14:53:38.760Z,98.00
2019-02-14T14:56:08.455Z,97.90
2019-02-14T14:58:38.363Z,98.10
2019-02-14T15:01:07.969Z,98.30
2019-02-14T15:03:37.543Z,98.50
2019-02-14T15:06:07.227Z,98.70
2019-02-14T15:08:36.816Z,98.80
2019-02-14T15:11:06.436Z,98.70
2019-02-14T15:13:36.019Z,99.10
2019-02-14T15:16:05.613Z,98.90
2019-02-14T15:18:35.271Z,98.70
2019-02-14T15:21:05.018Z,98.70
2019-02-14T15:23:34.605Z,98.80
2019-02-14T15:26:04.215Z,99.30
2019-02-14T15:28:33.796Z,98.80
2019-02-14T15:31:03.404Z,99.10
2019-02-14T15:33:33.045Z,99.10
2019-02-14T15:36:02.645Z,99.10
2019-02-14T15:38:34.570Z,99.00
2019-02-14T15:41:04.119Z,99.20
2019-02-14T15:43:33.721Z,99.20
2019-02-14T15:46:03.341Z,99.50
2019-02-14T15:48:32.921Z,99.40
2019-02-14T15:51:02.775Z,99.10
2019-02-14T15:53:32.360Z,99.50
2019-02-14T15:56:03.419Z,99.70
2019-02-14T15:58:33.251Z,99.70
2019-02-14T16:01:02.860Z,99.80
2019-02-14T16:03:32.458Z,99.80
2019-02-14T16:06:03.983Z,99.90
2019-02-14T16:08:33.363Z,99.90
2019-02-14T16:11:03.244Z,99.90
2019-02-14T16:13:33.807Z,99.90
2019-02-14T16:16:03.428Z,99.90
2019-02-14T16:18:33.024Z,99.90
2019-02-14T16:21:03.709Z,99.90
2019-02-14T16:23:34.331Z,99.90
2019-02-14T16:26:04.104Z,99.90
2019-02-14T16:28:33.680Z,99.90
2019-02-14T16:31:03.302Z,99.90
2019-02-14T16:33:32.956Z,99.90
2019-02-14T16:36:02.891Z,99.90
2019-02-14T16:38:33.087Z,99.90
2019-02-14T16:41:03.823Z,99.90
2019-02-14T16:43:33.736Z,99.90
2019-02-14T16:46:03.339Z,99.90
2019-02-14T16:48:32.931Z,99.90
2019-02-14T16:51:02.550Z,99.90
2019-02-14T16:53:32.146Z,99.90
2019-02-14T16:56:02.389Z,99.90
2019-02-14T16:58:33.264Z,99.90
2019-02-14T17:01:02.863Z,99.90
2019-02-14T17:03:32.455Z,99.90
2019-02-14T17:06:02.071Z,99.90
2019-02-14T17:08:31.639Z,99.90
2019-02-14T17:11:01.231Z,99.90
2019-02-14T17:13:30.815Z,99.90
2019-02-14T17:16:00.444Z,99.90
2019-02-14T17:18:30.400Z,99.90
2019-02-14T17:21:00.159Z,99.90
2019-02-14T17:23:29.756Z,99.90
2019-02-14T17:25:59.376Z,99.90
2019-02-14T17:28:28.965Z,99.90
2019-02-14T17:30:58.583Z,99.90
2019-02-14T17:33:28.175Z,99.90
2019-02-14T17:35:57.775Z,99.90
2019-02-14T17:38:27.360Z,99.90
2019-02-14T17:40:56.975Z,99.90
2019-02-14T17:43:26.603Z,99.90
2019-02-14T17:45:56.322Z,99.90
2019-02-14T17:48:26.651Z,99.90
2019-02-14T17:50:56.428Z,99.90
2019-02-14T17:53:26.051Z,99.90
2019-02-14T17:55:55.654Z,99.90
2019-02-14T17:58:25.244Z,99.90
2019-02-14T18:00:54.828Z,99.90
2019-02-14T18:03:24.494Z,99.90
2019-02-14T18:05:54.087Z,99.90
2019-02-14T18:08:23.677Z,99.90
2019-02-14T18:10:54.991Z,99.90
2019-02-14T18:13:24.603Z,99.90
2019-02-14T18:15:54.199Z,99.90
2019-02-14T18:18:23.800Z,99.90
2019-02-14T18:20:53.423Z,99.90
2019-02-14T18:23:23.255Z,99.90
2019-02-14T18:25:52.868Z,99.90
2019-02-14T18:28:22.456Z,99.90
2019-02-14T18:30:52.043Z,99.90
2019-02-14T18:33:21.707Z,99.90
2019-02-14T18:35:51.615Z,99.90
2019-02-14T18:38:21.237Z,99.90
2019-02-14T18:40:50.828Z,99.90
2019-02-14T18:43:21.501Z,99.90
2019-02-14T18:45:51.111Z,99.90
2019-02-14T18:48:20.719Z,99.90
2019-02-14T18:50:50.336Z,99.90
2019-02-14T18:53:21.358Z,99.90
2019-02-14T18:55:50.929Z,99.90
2019-02-14T18:58:26.449Z,99.90
2019-02-14T19:00:52.840Z,99.90
2019-02-14T19:03:22.457Z,99.90
2019-02-14T19:05:52.596Z,99.90
2019-02-14T19:08:22.326Z,99.90
2019-02-14T19:10:52.287Z,99.90
2019-02-14T19:13:21.875Z,99.90
2019-02-14T19:15:51.499Z,99.90
2019-02-14T19:18:21.263Z,99.90
2019-02-14T19:20:51.811Z,99.90
2019-02-14T19:23:24.375Z,99.90
2019-02-14T19:25:52.823Z,99.90
2019-02-14T19:28:22.454Z,99.90
2019-02-14T19:30:52.067Z,99.90
2019-02-14T19:33:21.740Z,99.90
2019-02-14T19:35:51.342Z,99.90
2019-02-14T19:38:20.930Z,99.90
2019-02-14T19:40:50.529Z,99.90
2019-02-14T19:43:20.136Z,99.90
2019-02-14T19:45:49.723Z,99.90
2019-02-14T19:48:19.351Z,99.90
2019-02-14T19:50:48.947Z,99.90
2019-02-14T19:53:18.539Z,99.90
2019-02-14T19:55:48.139Z,99.90
2019-02-14T19:58:17.995Z,99.90
2019-02-14T20:00:48.547Z,99.90
2019-02-14T20:03:18.423Z,99.90
2019-02-14T20:05:48.098Z,99.90
2019-02-14T20:08:17.944Z,99.90
2019-02-14T20:10:47.525Z,99.90
2019-02-14T20:13:17.464Z,99.90
2019-02-14T20:15:47.048Z,99.90
2019-02-14T20:18:16.652Z,99.90
2019-02-14T20:20:46.497Z,99.90
2019-02-14T20:23:17.267Z,99.90
2019-02-14T20:25:47.796Z,99.90
2019-02-14T20:28:17.664Z,99.90
2019-02-14T20:30:47.234Z,99.90
2019-02-14T20:33:16.831Z,99.90
2019-02-14T20:35:46.406Z,99.90
2019-02-14T20:38:16.066Z,99.90
2019-02-14T20:40:45.645Z,99.90
2019-02-14T20:43:15.239Z,99.90
2019-02-14T20:45:44.912Z,99.90
2019-02-14T20:48:14.597Z,99.90
2019-02-14T20:50:45.304Z,99.90
2019-02-14T20:53:14.891Z,99.90
2019-02-14T20:55:45.471Z,99.90
2019-02-14T20:58:15.064Z,99.90
2019-02-14T21:00:44.997Z,99.90
2019-02-14T21:03:15.751Z,99.90
2019-02-14T21:05:45.402Z,99.90
2019-02-14T21:08:15.487Z,99.90
2019-02-14T21:10:45.068Z,99.90
2019-02-14T21:13:14.667Z,99.90
2019-02-14T21:15:45.387Z,99.90
2019-02-14T21:18:14.978Z,99.90
2019-02-14T21:20:44.552Z,99.90
2019-02-14T21:23:14.137Z,99.90
2019-02-14T21:25:44.366Z,99.90
2019-02-14T21:28:14.000Z,99.90
2019-02-14T21:30:43.628Z,99.90
2019-02-14T21:33:13.253Z,99.90
2019-02-14T21:35:42.961Z,99.90
2019-02-14T21:38:12.632Z,99.90
2019-02-14T21:40:42.291Z,99.90
2019-02-14T21:43:11.871Z,99.90
2019-02-14T21:45:41.472Z,99.90
2019-02-14T21:48:11.156Z,99.90
2019-02-14T21:50:40.804Z,99.90
2019-02-14T21:53:10.476Z,99.90
2019-02-14T21:55:40.781Z,99.90
2019-02-14T21:58:10.394Z,99.90
2019-02-14T22:00:39.967Z,99.90
2019-02-14T22:03:09.790Z,99.90
2019-02-14T22:05:39.400Z,99.90
2019-02-14T22:08:09.232Z,99.90
2019-02-14T22:10:38.880Z,99.90
2019-02-14T22:13:08.485Z,99.90
2019-02-14T22:15:38.150Z,99.90
2019-02-14T22:18:08.066Z,99.90
2019-02-14T22:20:37.639Z,99.90
2019-02-14T22:23:07.222Z,99.90
2019-02-14T22:25:36.814Z,99.90
2019-02-14T22:28:06.479Z,99.90
2019-02-14T22:30:36.148Z,99.90
2019-02-14T22:33:06.019Z,99.90
2019-02-14T22:35:35.615Z,99.90
2019-02-14T22:38:05.291Z,99.90
2019-02-14T22:40:34.899Z,99.90
2019-02-14T22:43:04.480Z,99.90
2019-02-14T22:45:34.086Z,99.90
2019-02-14T22:48:03.659Z,99.90
2019-02-14T22:50:33.268Z,99.90
2019-02-14T22:53:02.852Z,99.90
2019-02-14T22:55:32.474Z,99.90
2019-02-14T22:58:02.069Z,99.90
2019-02-14T23:00:36.400Z,99.90
2019-02-14T23:03:07.831Z,99.90
2019-02-14T23:05:37.826Z,99.90
2019-02-14T23:08:07.480Z,99.90
2019-02-14T23:10:37.144Z,99.90
2019-02-14T23:13:06.884Z,99.90
2019-02-14T23:15:36.535Z,99.90
2019-02-14T23:18:06.103Z,99.90
2019-02-14T23:20:36.051Z,99.90
2019-02-14T23:23:05.711Z,99.90
2019-02-14T23:25:35.294Z,99.90
2019-02-14T23:28:04.946Z,99.90
2019-02-14T23:30:34.527Z,99.90
2019-02-14T23:33:04.180Z,99.90
2019-02-14T23:35:33.782Z,99.90
2019-02-14T23:38:03.364Z,99.90
2019-02-14T23:40:32.956Z,99.90
2019-02-14T23:43:04.840Z,99.90
2019-02-14T23:48:03.486Z,99.90
2019-02-14T23:50:33.070Z,99.90
2019-02-14T23:53:02.639Z,99.90
2019-02-14T23:55:32.600Z,99.90
2019-02-14T23:58:02.183Z,99.90
